Airfield :
LOGIN :

Register | Disclaimer

   EN    FR    IT 

 










Legend :    VFR   Marginal VFR   IFR   Intensive IFR   Very Intensive IFR
Visi :
Ceiling :
>= 8 km
>= 3000ft
5 to 8 km
1000 to 3000 ft
1500m to 5 km
500 to 1000 ft
800 to 1500m
200 to 500 ft
< 800m
< 200 ft
Symbols :   Thunderstorms  Fog  Heavy snow  Heavy precipitations  Wind > 20 kt
SIGMETs :     Misc.  Thunderstorms  Icing  Turbulence  Mountain Waves  Volcanic Ashes






- Airport Elevation : 463 ft
- IATA code : SZY
- AIRPORT CLOSED.


EPSY - Szczytno

CURRENT METAR :
  • 232030Z 23002KT 7000 -RA BKN004 BKN011 02/02 Q0996

EXPIRED METARs :
  • 232000Z 21004KT 7000 -RA SCT003 BKN006 BKN012 02/02 Q0997
  • 231930Z 20005KT 7000 -RADZ BKN003 BKN009 02/02 Q0997
  • 231900Z 16005KT 200V110 9999 -RA BKN008 BKN025 03/02 Q0997
  • 231830Z 20005KT 8000 -RA SCT010 BKN023 03/02 Q0998
  • 231800Z 20006KT 9999 -RA SCT014 BKN026 02/02 Q0999

TAF TAF EPSY
Valid from the 23 at 21:00 until the 24 at 06:00 UTC


232030Z 2321/2406 23005KT 9999 -RA BKN012 BKN020
TEMPO 2321/2323 4000 RA BR BKN007 BKN012
PROB40
TEMPO 2321/2323 2500 RADZ BR BKN003 BKN007
BECMG 2322/2324 29010KT
TEMPO 2323/2406 3000 SHRASN SCT005 BKN012CB



MET'MAP, your aeronautical weather chart ! - Copyright ORBIFLY December 2007 - Disclaimer

ORBIFLY MET'MAP TEAM :

Programming & Development : Alexandra Zaïnal
Concept & original design : Baudouin d'Aumeries
Assistance for programming : Marc-Olivier Méhu
Technical & hardware support : Manuel Goepfert

Contact : metmap@orbifly.com




SOURCES & CREDITS :

   NOAA